VTUWVTUD

Guest
Details From VTUW - Nakhon Phanom
To VTUD - Udon Thani
Flight Number -
Tags generated
Created
Modified
Stats Distance 108 nm / 200 km
Max Altitude 600 ft / 183 m
Waypoints 3
Social Downloads 0
Likes 0
Share VATSIM

Download

Looking for another format? Having issues loading an existing format? Contact us
Advertisement - Login to hide

Notes

Basic altitude profile: - Ascent Rate: 500ft/min - Ascent Speed: 80kts - Cruise Altitude: 8500ft - Cruise Speed: 110kts - Descent Rate: 1500ft/min - Descent Speed: 100kts

Route

VTUW UDN VTUD

ID Type Via Altitude Latitude Longitude Leg Dist Tot Dist Heading (true) Name
O VTUW APT - 0 ft / 0 m 17.38379˚ 104.64302˚ - 0 nm - Nakhon Phanom
UDN VOR - 600 ft / 183 m 17.38450˚ 102.77501˚ 107 nm 107 nm 270° / 270° UDON VOR-DME
O VTUD APT - 0 ft / 0 m 17.38644˚ 102.78825˚ 0 nm 107 nm 81° / 81° Udon Thani

Altitude Profile

Advertisement - Login to hide

VTUW

Details ICAO VTUW (KOP)
Name Nakhon Phanom
Region Thailand
Timezone Asia/Bangkok (UTC+7.0)
Stats Elevation 587 ft / 179 m (AMSL)
Location 17.383795° 104.643022°
Runways 1
Magnetic Variation 1.011° W

METAR

VTUW 230900Z VRB03KT 9999 SCT025 33/24 Q1007 NOSIG

Decode

TAF

TAF VTUW 230500Z 2306/2406 12004KT 9999 SCT030 SCT080 TEMPO 2308/2315 VRB15G25KT 5000 TSRA FEW018CB BKN020 BKN100 BECMG 2321/2323 7000 FEW030 SCT080 BECMG 2402/2404 9999 SCT030

Decode

Departure Runways

ID Width Length Bearing (true) Bearing (mag) Surface Threshold Offset Overrun Length
15 148 ft / 45 m 8,241 ft / 2,512 m 144.98° 145.99° Asphalt 0 ft / 0 m 197 ft / 60 m
33 148 ft / 45 m 8,241 ft / 2,512 m 324.99° 326.00° Asphalt 0 ft / 0 m 197 ft / 60 m

VTUD

Details ICAO VTUD (UTH)
Name Udon Thani
Region Thailand
Timezone Asia/Bangkok (UTC+7.0)
Stats Elevation 579 ft / 176 m (AMSL)
Location 17.386436° 102.788247°
Runways 1
Magnetic Variation 0.875° W

METAR

VTUD 230900Z VRB04KT 9999 FEW048 33/23 Q1007 NOSIG

Decode

TAF

TAF VTUD 230500Z 2306/2406 10004KT 9999 SCT020 SCT080 TEMPO 2308/2314 VRB15G25KT 4000 TSRA FEW018CB BKN020 BKN100 BECMG 2321/2323 7000 FEW030 SCT080 BECMG 2402/2404 9999 SCT030

Decode

Destination Runways

ID Width Length Bearing (true) Bearing (mag) Surface Threshold Offset Overrun Length
12 148 ft / 45 m 10,012 ft / 3,052 m 117.17° 118.05° Asphalt 0 ft / 0 m 1,001 ft / 305 m
30 148 ft / 45 m 10,012 ft / 3,052 m 297.17° 298.05° Asphalt 0 ft / 0 m 997 ft / 304 m

Approach Navaids

Runway Type Ident Frequency Range Bearing (true) Bearing (mag) Slope Elevation
30 Localiser IUDN 110.10 MHz 18 nm / 33 km 297.16° 298.04° - 579 ft / 176 m (AMSL)
30 Glidescope IUDN 110.10 MHz 10 nm / 19 km 297.17° 298.04° 3.00° 579 ft / 176 m (AMSL)
30 DME IUDN 110.10 MHz 18 nm / 33 km - - - 579 ft / 176 m (AMSL)

Popular Alternatives